sensor_id;sensor_type;location;lat;lon;timestamp;pressure;altitude;pressure_sealevel;temperature;humidity
74163;BME280;62515;52.758;5.076;2023-04-22T00:02:14;100962.75;;;8.13;100.00
74163;BME280;62515;52.758;5.076;2023-04-22T00:04:43;100959.19;;;7.98;100.00
74163;BME280;62515;52.758;5.076;2023-04-22T00:07:10;100958.88;;;7.88;100.00
74163;BME280;62515;52.758;5.076;2023-04-22T00:09:37;100954.13;;;7.79;100.00
74163;BME280;62515;52.758;5.076;2023-04-22T00:12:04;100955.09;;;7.63;100.00
74163;BME280;62515;52.758;5.076;2023-04-22T00:14:31;100954.59;;;7.56;100.00
74163;BME280;62515;52.758;5.076;2023-04-22T00:16:58;100956.13;;;7.45;100.00
74163;BME280;62515;52.758;5.076;2023-04-22T00:19:25;100954.13;;;7.34;100.00
74163;BME280;62515;52.758;5.076;2023-04-22T00:21:53;100951.47;;;7.34;100.00
74163;BME280;62515;52.758;5.076;2023-04-22T00:24:20;100958.03;;;7.27;100.00
74163;BME280;62515;52.758;5.076;2023-04-22T00:26:47;100958.09;;;7.25;100.00
74163;BME280;62515;52.758;5.076;2023-04-22T00:29:13;100959.41;;;7.18;100.00
74163;BME280;62515;52.758;5.076;2023-04-22T00:31:40;100963.06;;;7.16;100.00
74163;BME280;62515;52.758;5.076;2023-04-22T00:34:07;100962.56;;;7.25;100.00
74163;BME280;62515;52.758;5.076;2023-04-22T00:36:34;100961.03;;;7.21;100.00
74163;BME280;62515;52.758;5.076;2023-04-22T00:39:02;100950.63;;;7.18;100.00
74163;BME280;62515;52.758;5.076;2023-04-22T00:41:29;100961.78;;;7.23;100.00
74163;BME280;62515;52.758;5.076;2023-04-22T00:43:57;100959.06;;;7.24;100.00
74163;BME280;62515;52.758;5.076;2023-04-22T00:46:25;100959.06;;;7.24;100.00
74163;BME280;62515;52.758;5.076;2023-04-22T00:48:53;100959.06;;;7.24;100.00
74163;BME280;62515;52.758;5.076;2023-04-22T00:51:19;100951.47;;;7.18;100.00
74163;BME280;62515;52.758;5.076;2023-04-22T00:53:46;100946.59;;;7.26;100.00
74163;BME280;62515;52.758;5.076;2023-04-22T00:56:14;100950.44;;;7.21;100.00
74163;BME280;62515;52.758;5.076;2023-04-22T00:58:42;100952.47;;;7.16;100.00
74163;BME280;62515;52.758;5.076;2023-04-22T01:01:09;100946.31;;;7.15;100.00
74163;BME280;62515;52.758;5.076;2023-04-22T01:03:37;100948.47;;;7.09;100.00
74163;BME280;62515;52.758;5.076;2023-04-22T01:06:06;100954.53;;;7.11;100.00
74163;BME280;62515;52.758;5.076;2023-04-22T01:08:34;100948.03;;;7.16;100.00
74163;BME280;62515;52.758;5.076;2023-04-22T01:11:01;100946.69;;;7.25;100.00
74163;BME280;62515;52.758;5.076;2023-04-22T01:13:29;100946.19;;;7.18;100.00
74163;BME280;62515;52.758;5.076;2023-04-22T01:15:56;100948.63;;;7.06;100.00
74163;BME280;62515;52.758;5.076;2023-04-22T01:18:23;100949.16;;;6.97;100.00
74163;BME280;62515;52.758;5.076;2023-04-22T01:20:50;100948.78;;;6.87;100.00
74163;BME280;62515;52.758;5.076;2023-04-22T01:23:20;100954.53;;;6.79;100.00
74163;BME280;62515;52.758;5.076;2023-04-22T01:25:47;100948.09;;;6.83;100.00
74163;BME280;62515;52.758;5.076;2023-04-22T01:28:15;100950.91;;;6.80;100.00
74163;BME280;62515;52.758;5.076;2023-04-22T01:30:42;100944.53;;;6.84;100.00
74163;BME280;62515;52.758;5.076;2023-04-22T01:33:10;100944.44;;;6.86;100.00
74163;BME280;62515;52.758;5.076;2023-04-22T01:35:37;100947.75;;;6.90;100.00
74163;BME280;62515;52.758;5.076;2023-04-22T01:38:05;100939.13;;;6.86;100.00
74163;BME280;62515;52.758;5.076;2023-04-22T01:40:34;100943.97;;;6.95;100.00
74163;BME280;62515;52.758;5.076;2023-04-22T01:43:01;100944.38;;;6.88;100.00
74163;BME280;62515;52.758;5.076;2023-04-22T01:45:29;100942.66;;;6.87;100.00
74163;BME280;62515;52.758;5.076;2023-04-22T01:47:56;100946.25;;;6.86;100.00
74163;BME280;62515;52.758;5.076;2023-04-22T01:50:23;100942.28;;;6.77;100.00
74163;BME280;62515;52.758;5.076;2023-04-22T01:52:50;100945.03;;;6.75;100.00
74163;BME280;62515;52.758;5.076;2023-04-22T01:55:17;100950.66;;;6.69;100.00
74163;BME280;62515;52.758;5.076;2023-04-22T01:57:45;100956.19;;;6.65;100.00
74163;BME280;62515;52.758;5.076;2023-04-22T02:00:12;100950.13;;;6.63;100.00
74163;BME280;62515;52.758;5.076;2023-04-22T02:02:41;100953.09;;;6.57;100.00
74163;BME280;62515;52.758;5.076;2023-04-22T02:05:08;100956.31;;;6.46;100.00
74163;BME280;62515;52.758;5.076;2023-04-22T02:07:35;100951.34;;;6.40;100.00
74163;BME280;62515;52.758;5.076;2023-04-22T02:10:02;100936.59;;;6.36;100.00
74163;BME280;62515;52.758;5.076;2023-04-22T02:12:29;100956.53;;;6.42;100.00
74163;BME280;62515;52.758;5.076;2023-04-22T02:14:57;100954.94;;;6.39;100.00
74163;BME280;62515;52.758;5.076;2023-04-22T02:17:24;100950.25;;;6.44;100.00
74163;BME280;62515;52.758;5.076;2023-04-22T02:19:51;100955.44;;;6.63;100.00
74163;BME280;62515;52.758;5.076;2023-04-22T02:22:18;100956.72;;;6.71;100.00
74163;BME280;62515;52.758;5.076;2023-04-22T02:24:49;100944.94;;;6.77;100.00
74163;BME280;62515;52.758;5.076;2023-04-22T02:27:16;100952.00;;;6.76;100.00
74163;BME280;62515;52.758;5.076;2023-04-22T02:29:44;100949.38;;;6.76;100.00
74163;BME280;62515;52.758;5.076;2023-04-22T02:32:13;100948.97;;;6.84;100.00
74163;BME280;62515;52.758;5.076;2023-04-22T02:34:40;100950.59;;;6.87;100.00
74163;BME280;62515;52.758;5.076;2023-04-22T02:37:07;100944.94;;;6.77;100.00
74163;BME280;62515;52.758;5.076;2023-04-22T02:39:33;100945.47;;;6.51;100.00
74163;BME280;62515;52.758;5.076;2023-04-22T02:42:00;100937.41;;;6.21;100.00
74163;BME280;62515;52.758;5.076;2023-04-22T02:44:27;100942.38;;;6.10;100.00
74163;BME280;62515;52.758;5.076;2023-04-22T02:46:54;100948.13;;;6.01;100.00
74163;BME280;62515;52.758;5.076;2023-04-22T02:49:22;100949.53;;;5.91;100.00
74163;BME280;62515;52.758;5.076;2023-04-22T02:51:48;100952.31;;;5.88;100.00
74163;BME280;62515;52.758;5.076;2023-04-22T02:54:15;100953.44;;;5.82;100.00
74163;BME280;62515;52.758;5.076;2023-04-22T02:56:42;100944.84;;;5.96;100.00
74163;BME280;62515;52.758;5.076;2023-04-22T02:59:09;100934.75;;;6.21;100.00
74163;BME280;62515;52.758;5.076;2023-04-22T03:01:36;100935.03;;;6.32;100.00
74163;BME280;62515;52.758;5.076;2023-04-22T03:04:06;100928.69;;;6.19;100.00
74163;BME280;62515;52.758;5.076;2023-04-22T03:06:34;100932.81;;;6.07;100.00
74163;BME280;62515;52.758;5.076;2023-04-22T03:09:01;100892.25;;;5.74;100.00
74163;BME280;62515;52.758;5.076;2023-04-22T03:11:28;100934.03;;;5.83;100.00
74163;BME280;62515;52.758;5.076;2023-04-22T03:13:55;100925.97;;;5.69;100.00
74163;BME280;62515;52.758;5.076;2023-04-22T03:16:22;100933.16;;;5.48;100.00
74163;BME280;62515;52.758;5.076;2023-04-22T03:18:50;100924.59;;;5.43;100.00
74163;BME280;62515;52.758;5.076;2023-04-22T03:21:17;100924.97;;;5.36;100.00
74163;BME280;62515;52.758;5.076;2023-04-22T03:23:45;100922.59;;;5.48;100.00
74163;BME280;62515;52.758;5.076;2023-04-22T03:26:12;100917.00;;;5.54;100.00
74163;BME280;62515;52.758;5.076;2023-04-22T03:28:40;100916.25;;;5.52;100.00
74163;BME280;62515;52.758;5.076;2023-04-22T03:31:07;100920.09;;;5.45;100.00
74163;BME280;62515;52.758;5.076;2023-04-22T03:33:34;100918.69;;;5.38;100.00
74163;BME280;62515;52.758;5.076;2023-04-22T03:36:11;100918.84;;;5.35;100.00
74163;BME280;62515;52.758;5.076;2023-04-22T03:38:38;100903.63;;;5.40;100.00
74163;BME280;62515;52.758;5.076;2023-04-22T03:41:06;100916.66;;;5.43;100.00
74163;BME280;62515;52.758;5.076;2023-04-22T03:43:38;100904.28;;;5.45;100.00
74163;BME280;62515;52.758;5.076;2023-04-22T03:46:08;100902.09;;;5.53;100.00
74163;BME280;62515;52.758;5.076;2023-04-22T03:48:39;100901.09;;;5.56;100.00
74163;BME280;62515;52.758;5.076;2023-04-22T03:51:16;100887.38;;;5.49;100.00
74163;BME280;62515;52.758;5.076;2023-04-22T03:53:43;100896.34;;;5.45;100.00
74163;BME280;62515;52.758;5.076;2023-04-22T03:56:16;100895.31;;;5.31;100.00
74163;BME280;62515;52.758;5.076;2023-04-22T03:58:45;100891.97;;;5.27;100.00
74163;BME280;62515;52.758;5.076;2023-04-22T04:01:11;100885.00;;;5.26;100.00
74163;BME280;62515;52.758;5.076;2023-04-22T04:03:41;100889.25;;;5.28;100.00
74163;BME280;62515;52.758;5.076;2023-04-22T04:06:09;100885.16;;;5.23;100.00
74163;BME280;62515;52.758;5.076;2023-04-22T04:08:36;100883.91;;;5.30;100.00
74163;BME280;62515;52.758;5.076;2023-04-22T04:11:03;100877.94;;;5.44;100.00
74163;BME280;62515;52.758;5.076;2023-04-22T04:13:32;100876.34;;;5.58;100.00
74163;BME280;62515;52.758;5.076;2023-04-22T04:16:13;100866.47;;;5.62;100.00
74163;BME280;62515;52.758;5.076;2023-04-22T04:18:42;100867.34;;;5.62;100.00
74163;BME280;62515;52.758;5.076;2023-04-22T04:21:10;100863.88;;;5.43;100.00
74163;BME280;62515;52.758;5.076;2023-04-22T04:23:43;100864.09;;;5.21;100.00
74163;BME280;62515;52.758;5.076;2023-04-22T04:26:10;100867.91;;;5.16;100.00
74163;BME280;62515;52.758;5.076;2023-04-22T04:28:42;100879.06;;;5.04;100.00
74163;BME280;62515;52.758;5.076;2023-04-22T04:31:09;100876.84;;;4.95;100.00
74163;BME280;62515;52.758;5.076;2023-04-22T04:33:36;100875.94;;;4.96;100.00
74163;BME280;62515;52.758;5.076;2023-04-22T04:36:04;100881.81;;;5.01;100.00
74163;BME280;62515;52.758;5.076;2023-04-22T04:38:33;100879.16;;;5.19;100.00
74163;BME280;62515;52.758;5.076;2023-04-22T04:41:01;100867.09;;;5.33;100.00
74163;BME280;62515;52.758;5.076;2023-04-22T04:43:28;100876.69;;;5.34;100.00
74163;BME280;62515;52.758;5.076;2023-04-22T04:46:05;100882.28;;;5.27;100.00
74163;BME280;62515;52.758;5.076;2023-04-22T04:48:34;100886.69;;;5.27;100.00
74163;BME280;62515;52.758;5.076;2023-04-22T04:51:06;100883.13;;;5.28;100.00
74163;BME280;62515;52.758;5.076;2023-04-22T04:53:39;100881.41;;;5.27;100.00
74163;BME280;62515;52.758;5.076;2023-04-22T04:56:06;100881.34;;;5.28;100.00
74163;BME280;62515;52.758;5.076;2023-04-22T04:58:34;100882.38;;;5.26;100.00
74163;BME280;62515;52.758;5.076;2023-04-22T05:01:17;100879.81;;;5.42;100.00
74163;BME280;62515;52.758;5.076;2023-04-22T05:03:45;100878.34;;;5.53;100.00
74163;BME280;62515;52.758;5.076;2023-04-22T05:06:15;100867.88;;;5.69;100.00
74163;BME280;62515;52.758;5.076;2023-04-22T05:08:46;100870.28;;;5.91;100.00
74163;BME280;62515;52.758;5.076;2023-04-22T05:11:13;100868.63;;;6.05;100.00
74163;BME280;62515;52.758;5.076;2023-04-22T05:13:42;100874.00;;;6.37;100.00
74163;BME280;62515;52.758;5.076;2023-04-22T05:16:14;100872.16;;;6.54;100.00
74163;BME280;62515;52.758;5.076;2023-04-22T05:18:42;100872.44;;;6.65;100.00
74163;BME280;62515;52.758;5.076;2023-04-22T05:21:09;100871.50;;;6.82;100.00
74163;BME280;62515;52.758;5.076;2023-04-22T05:23:37;100865.75;;;7.21;100.00
74163;BME280;62515;52.758;5.076;2023-04-22T05:26:05;100876.25;;;7.52;100.00
74163;BME280;62515;52.758;5.076;2023-04-22T05:28:34;100874.47;;;7.82;100.00
74163;BME280;62515;52.758;5.076;2023-04-22T05:31:02;100869.16;;;7.82;100.00
74163;BME280;62515;52.758;5.076;2023-04-22T05:33:30;100872.38;;;7.87;100.00
74163;BME280;62515;52.758;5.076;2023-04-22T05:35:59;100879.16;;;7.63;100.00
74163;BME280;62515;52.758;5.076;2023-04-22T05:38:26;100879.44;;;7.43;100.00
74163;BME280;62515;52.758;5.076;2023-04-22T05:40:55;100876.84;;;7.27;100.00
74163;BME280;62515;52.758;5.076;2023-04-22T05:43:23;100869.94;;;7.25;100.00
74163;BME280;62515;52.758;5.076;2023-04-22T05:45:56;100871.81;;;7.23;100.00
74163;BME280;62515;52.758;5.076;2023-04-22T05:48:23;100867.44;;;7.22;100.00
74163;BME280;62515;52.758;5.076;2023-04-22T05:50:56;100867.88;;;7.30;100.00
74163;BME280;62515;52.758;5.076;2023-04-22T05:53:28;100878.94;;;7.36;100.00
74163;BME280;62515;52.758;5.076;2023-04-22T05:55:57;100860.50;;;7.35;100.00
74163;BME280;62515;52.758;5.076;2023-04-22T05:58:24;100870.03;;;7.53;100.00
74163;BME280;62515;52.758;5.076;2023-04-22T06:00:53;100872.13;;;7.62;100.00
74163;BME280;62515;52.758;5.076;2023-04-22T06:03:40;100873.34;;;7.86;100.00
74163;BME280;62515;52.758;5.076;2023-04-22T06:06:08;100874.59;;;7.95;100.00
74163;BME280;62515;52.758;5.076;2023-04-22T06:08:37;100873.06;;;7.91;100.00
74163;BME280;62515;52.758;5.076;2023-04-22T06:11:04;100869.47;;;7.92;100.00
74163;BME280;62515;52.758;5.076;2023-04-22T06:13:33;100870.44;;;8.05;100.00
74163;BME280;62515;52.758;5.076;2023-04-22T06:16:01;100871.97;;;8.09;100.00
74163;BME280;62515;52.758;5.076;2023-04-22T06:18:32;100878.84;;;8.26;100.00
74163;BME280;62515;52.758;5.076;2023-04-22T06:21:06;100875.50;;;8.38;100.00
74163;BME280;62515;52.758;5.076;2023-04-22T06:23:37;100878.03;;;8.54;100.00
74163;BME280;62515;52.758;5.076;2023-04-22T06:26:04;100862.88;;;8.56;100.00
74163;BME280;62515;52.758;5.076;2023-04-22T06:28:32;100866.06;;;8.75;100.00
74163;BME280;62515;52.758;5.076;2023-04-22T06:31:04;100865.72;;;8.81;100.00
74163;BME280;62515;52.758;5.076;2023-04-22T06:33:31;100865.59;;;8.82;100.00
74163;BME280;62515;52.758;5.076;2023-04-22T06:36:00;100856.84;;;8.94;100.00
74163;BME280;62515;52.758;5.076;2023-04-22T06:38:31;100852.84;;;9.02;100.00
74163;BME280;62515;52.758;5.076;2023-04-22T06:41:22;100848.19;;;9.05;100.00
74163;BME280;62515;52.758;5.076;2023-04-22T06:43:53;100847.91;;;9.10;100.00
74163;BME280;62515;52.758;5.076;2023-04-22T06:46:38;100852.16;;;9.12;100.00
74163;BME280;62515;52.758;5.076;2023-04-22T06:49:28;100841.59;;;9.37;100.00
74163;BME280;62515;52.758;5.076;2023-04-22T06:52:14;100843.00;;;9.43;100.00
74163;BME280;62515;52.758;5.076;2023-04-22T06:54:41;100824.34;;;9.57;100.00
74163;BME280;62515;52.758;5.076;2023-04-22T06:57:09;100827.53;;;9.62;100.00
74163;BME280;62515;52.758;5.076;2023-04-22T06:59:39;100818.81;;;9.85;100.00
74163;BME280;62515;52.758;5.076;2023-04-22T07:02:12;100822.66;;;10.07;100.00
74163;BME280;62515;52.758;5.076;2023-04-22T07:04:40;100826.06;;;10.09;100.00
74163;BME280;62515;52.758;5.076;2023-04-22T07:07:07;100822.88;;;9.91;100.00
74163;BME280;62515;52.758;5.076;2023-04-22T07:09:34;100822.66;;;10.07;100.00
74163;BME280;62515;52.758;5.076;2023-04-22T07:12:01;100826.50;;;10.28;100.00
74163;BME280;62515;52.758;5.076;2023-04-22T07:14:31;100835.88;;;10.46;100.00
74163;BME280;62515;52.758;5.076;2023-04-22T07:16:58;100819.88;;;10.59;100.00
74163;BME280;62515;52.758;5.076;2023-04-22T07:19:25;100813.16;;;10.66;100.00
74163;BME280;62515;52.758;5.076;2023-04-22T07:21:52;100809.53;;;10.90;100.00
74163;BME280;62515;52.758;5.076;2023-04-22T07:24:19;100802.78;;;10.74;100.00
74163;BME280;62515;52.758;5.076;2023-04-22T07:26:45;100793.72;;;10.76;100.00
74163;BME280;62515;52.758;5.076;2023-04-22T07:29:12;100793.50;;;11.03;100.00
74163;BME280;62515;52.758;5.076;2023-04-22T07:31:41;100783.47;;;11.07;100.00
74163;BME280;62515;52.758;5.076;2023-04-22T07:34:07;100780.56;;;11.10;100.00
74163;BME280;62515;52.758;5.076;2023-04-22T07:36:34;100773.22;;;11.13;100.00
74163;BME280;62515;52.758;5.076;2023-04-22T07:39:02;100768.78;;;11.25;100.00
74163;BME280;62515;52.758;5.076;2023-04-22T07:41:29;100779.94;;;11.30;100.00
74163;BME280;62515;52.758;5.076;2023-04-22T07:43:56;100787.06;;;11.29;100.00
74163;BME280;62515;52.758;5.076;2023-04-22T07:46:23;100786.81;;;11.56;100.00
74163;BME280;62515;52.758;5.076;2023-04-22T07:48:51;100794.41;;;11.73;100.00
74163;BME280;62515;52.758;5.076;2023-04-22T07:51:18;100799.38;;;11.89;100.00
74163;BME280;62515;52.758;5.076;2023-04-22T07:53:45;100805.06;;;11.84;100.00
74163;BME280;62515;52.758;5.076;2023-04-22T07:56:12;100804.25;;;11.95;100.00
74163;BME280;62515;52.758;5.076;2023-04-22T07:58:39;100812.88;;;12.32;100.00
74163;BME280;62515;52.758;5.076;2023-04-22T08:01:05;100808.97;;;12.47;100.00
74163;BME280;62515;52.758;5.076;2023-04-22T08:03:32;100794.84;;;13.74;100.00
74163;BME280;62515;52.758;5.076;2023-04-22T08:06:01;100792.13;;;14.36;100.00
74163;BME280;62515;52.758;5.076;2023-04-22T08:08:28;100780.38;;;14.27;100.00
74163;BME280;62515;52.758;5.076;2023-04-22T08:10:54;100785.41;;;14.51;100.00
74163;BME280;62515;52.758;5.076;2023-04-22T08:13:21;100774.25;;;14.15;100.00
74163;BME280;62515;52.758;5.076;2023-04-22T08:15:48;100761.63;;;13.97;100.00
74163;BME280;62515;52.758;5.076;2023-04-22T08:18:15;100772.16;;;14.19;100.00
74163;BME280;62515;52.758;5.076;2023-04-22T08:20:41;100771.13;;;14.10;100.00
74163;BME280;62515;52.758;5.076;2023-04-22T08:23:09;100779.94;;;13.71;100.00
74163;BME280;62515;52.758;5.076;2023-04-22T08:25:36;100787.22;;;13.69;100.00
74163;BME280;62515;52.758;5.076;2023-04-22T08:28:03;100784.25;;;13.93;100.00
74163;BME280;62515;52.758;5.076;2023-04-22T08:30:30;100781.22;;;14.68;100.00
74163;BME280;62515;52.758;5.076;2023-04-22T08:32:56;100780.88;;;15.20;100.00
74163;BME280;62515;52.758;5.076;2023-04-22T08:35:23;100792.44;;;15.21;100.00
74163;BME280;62515;52.758;5.076;2023-04-22T08:37:50;100796.81;;;15.22;100.00
74163;BME280;62515;52.758;5.076;2023-04-22T08:40:18;100793.69;;;15.36;100.00
74163;BME280;62515;52.758;5.076;2023-04-22T08:42:45;100784.97;;;15.72;100.00
74163;BME280;62515;52.758;5.076;2023-04-22T08:45:13;100771.69;;;15.42;100.00
74163;BME280;62515;52.758;5.076;2023-04-22T08:47:40;100759.63;;;15.84;100.00
74163;BME280;62515;52.758;5.076;2023-04-22T08:50:08;100757.47;;;15.97;100.00
74163;BME280;62515;52.758;5.076;2023-04-22T08:52:36;100754.16;;;15.86;100.00
74163;BME280;62515;52.758;5.076;2023-04-22T08:55:04;100736.97;;;15.59;100.00
74163;BME280;62515;52.758;5.076;2023-04-22T08:57:32;100745.97;;;16.14;100.00
74163;BME280;62515;52.758;5.076;2023-04-22T09:00:02;100741.59;;;16.78;100.00
74163;BME280;62515;52.758;5.076;2023-04-22T09:02:31;100736.72;;;16.81;100.00
74163;BME280;62515;52.758;5.076;2023-04-22T09:05:01;100745.94;;;16.61;100.00
74163;BME280;62515;52.758;5.076;2023-04-22T09:07:30;100739.63;;;16.15;100.00
74163;BME280;62515;52.758;5.076;2023-04-22T09:09:57;100731.38;;;16.27;100.00
74163;BME280;62515;52.758;5.076;2023-04-22T09:12:24;100740.25;;;15.90;100.00
74163;BME280;62515;52.758;5.076;2023-04-22T09:14:52;100741.25;;;16.26;100.00
74163;BME280;62515;52.758;5.076;2023-04-22T09:17:30;100731.38;;;17.16;100.00
74163;BME280;62515;52.758;5.076;2023-04-22T09:19:57;100728.59;;;17.08;100.00
74163;BME280;62515;52.758;5.076;2023-04-22T09:22:25;100729.81;;;17.32;100.00
74163;BME280;62515;52.758;5.076;2023-04-22T09:24:52;100746.34;;;17.80;100.00
74163;BME280;62515;52.758;5.076;2023-04-22T09:27:23;100748.72;;;18.43;100.00
74163;BME280;62515;52.758;5.076;2023-04-22T09:29:51;100753.38;;;18.33;100.00
74163;BME280;62515;52.758;5.076;2023-04-22T09:32:18;100744.41;;;18.50;100.00
74163;BME280;62515;52.758;5.076;2023-04-22T09:34:48;100754.25;;;18.41;100.00
74163;BME280;62515;52.758;5.076;2023-04-22T09:37:17;100757.13;;;18.40;100.00
74163;BME280;62515;52.758;5.076;2023-04-22T09:39:47;100743.75;;;18.56;100.00
74163;BME280;62515;52.758;5.076;2023-04-22T09:42:15;100746.28;;;18.32;100.00
74163;BME280;62515;52.758;5.076;2023-04-22T09:44:43;100752.94;;;18.95;100.00
74163;BME280;62515;52.758;5.076;2023-04-22T09:47:12;100742.66;;;18.49;100.00
74163;BME280;62515;52.758;5.076;2023-04-22T09:49:45;100733.91;;;19.05;100.00
74163;BME280;62515;52.758;5.076;2023-04-22T09:52:19;100747.03;;;19.00;100.00
74163;BME280;62515;52.758;5.076;2023-04-22T09:54:48;100734.09;;;19.27;100.00
74163;BME280;62515;52.758;5.076;2023-04-22T09:57:14;100726.31;;;19.32;100.00
74163;BME280;62515;52.758;5.076;2023-04-22T09:59:42;100721.41;;;19.93;100.00
74163;BME280;62515;52.758;5.076;2023-04-22T10:02:08;100724.47;;;19.65;100.00
74163;BME280;62515;52.758;5.076;2023-04-22T10:04:37;100724.09;;;20.48;100.00
74163;BME280;62515;52.758;5.076;2023-04-22T10:07:04;100728.88;;;20.38;100.00
74163;BME280;62515;52.758;5.076;2023-04-22T10:09:31;100722.88;;;20.03;100.00
74163;BME280;62515;52.758;5.076;2023-04-22T10:11:58;100717.06;;;19.59;100.00
74163;BME280;62515;52.758;5.076;2023-04-22T10:14:25;100734.47;;;20.28;100.00
74163;BME280;62515;52.758;5.076;2023-04-22T10:16:55;100717.16;;;20.76;100.00
74163;BME280;62515;52.758;5.076;2023-04-22T10:19:26;100715.41;;;20.13;100.00
74163;BME280;62515;52.758;5.076;2023-04-22T10:21:56;100713.19;;;19.70;100.00
74163;BME280;62515;52.758;5.076;2023-04-22T10:24:25;100707.75;;;19.86;100.00
74163;BME280;62515;52.758;5.076;2023-04-22T10:26:54;100698.31;;;19.25;100.00
74163;BME280;62515;52.758;5.076;2023-04-22T10:29:23;100683.47;;;18.81;100.00
74163;BME280;62515;52.758;5.076;2023-04-22T10:31:53;100682.47;;;18.82;100.00
74163;BME280;62515;52.758;5.076;2023-04-22T10:34:20;100686.81;;;18.67;100.00
74163;BME280;62515;52.758;5.076;2023-04-22T10:36:57;100680.63;;;17.91;100.00
74163;BME280;62515;52.758;5.076;2023-04-22T10:39:26;100684.38;;;18.40;100.00
74163;BME280;62515;52.758;5.076;2023-04-22T10:41:56;100697.25;;;17.43;100.00
74163;BME280;62515;52.758;5.076;2023-04-22T10:44:27;100702.38;;;17.10;100.00
74163;BME280;62515;52.758;5.076;2023-04-22T10:46:55;100712.28;;;16.30;100.00
74163;BME280;62515;52.758;5.076;2023-04-22T10:49:24;100719.22;;;16.50;100.00
74163;BME280;62515;52.758;5.076;2023-04-22T10:51:52;100725.22;;;16.71;100.00
74163;BME280;62515;52.758;5.076;2023-04-22T10:54:58;100735.63;;;16.19;100.00
74163;BME280;62515;52.758;5.076;2023-04-22T10:57:30;100739.38;;;16.09;100.00
74163;BME280;62515;52.758;5.076;2023-04-22T10:59:58;100733.41;;;16.15;100.00
74163;BME280;62515;52.758;5.076;2023-04-22T11:02:25;100740.53;;;15.97;100.00
74163;BME280;62515;52.758;5.076;2023-04-22T11:05:22;100749.19;;;15.81;100.00
74163;BME280;62515;52.758;5.076;2023-04-22T11:07:53;100751.63;;;15.75;100.00
74163;BME280;62515;52.758;5.076;2023-04-22T11:10:37;100743.19;;;16.06;100.00
74163;BME280;62515;52.758;5.076;2023-04-22T11:13:04;100734.66;;;16.75;100.00
74163;BME280;62515;52.758;5.076;2023-04-22T11:15:34;100737.72;;;16.53;100.00
74163;BME280;62515;52.758;5.076;2023-04-22T11:18:02;100734.06;;;16.27;100.00
74163;BME280;62515;52.758;5.076;2023-04-22T11:20:29;100731.22;;;15.91;100.00
74163;BME280;62515;52.758;5.076;2023-04-22T11:22:56;100728.22;;;15.57;100.00
74163;BME280;62515;52.758;5.076;2023-04-22T11:25:24;100732.72;;;15.66;100.00
74163;BME280;62515;52.758;5.076;2023-04-22T11:27:52;100738.66;;;15.41;100.00
74163;BME280;62515;52.758;5.076;2023-04-22T11:30:21;100731.75;;;14.81;100.00
74163;BME280;62515;52.758;5.076;2023-04-22T11:32:50;100731.56;;;14.63;100.00
74163;BME280;62515;52.758;5.076;2023-04-22T11:35:19;100733.56;;;14.22;100.00
74163;BME280;62515;52.758;5.076;2023-04-22T11:37:47;100739.91;;;14.21;100.00
74163;BME280;62515;52.758;5.076;2023-04-22T11:40:16;100744.19;;;14.02;100.00
74163;BME280;62515;52.758;5.076;2023-04-22T11:42:59;100733.22;;;13.75;100.00
74163;BME280;62515;52.758;5.076;2023-04-22T11:45:28;100725.63;;;13.80;100.00
74163;BME280;62515;52.758;5.076;2023-04-22T11:47:55;100715.25;;;13.87;100.00
74163;BME280;62515;52.758;5.076;2023-04-22T11:50:24;100708.25;;;13.95;100.00
74163;BME280;62515;52.758;5.076;2023-04-22T11:52:53;100707.59;;;14.12;100.00
74163;BME280;62515;52.758;5.076;2023-04-22T11:55:21;100706.06;;;14.50;100.00
74163;BME280;62515;52.758;5.076;2023-04-22T11:57:54;100706.38;;;14.56;100.00
74163;BME280;62515;52.758;5.076;2023-04-22T12:00:28;100706.97;;;14.30;100.00
74163;BME280;62515;52.758;5.076;2023-04-22T12:02:56;100696.34;;;14.19;100.00
74163;BME280;62515;52.758;5.076;2023-04-22T12:05:38;100702.00;;;13.34;100.00
74163;BME280;62515;52.758;5.076;2023-04-22T12:08:07;100696.72;;;13.44;100.00
74163;BME280;62515;52.758;5.076;2023-04-22T12:10:38;100710.31;;;13.20;100.00
74163;BME280;62515;52.758;5.076;2023-04-22T12:13:05;100713.88;;;13.41;100.00
74163;BME280;62515;52.758;5.076;2023-04-22T12:15:40;100717.41;;;13.42;100.00
74163;BME280;62515;52.758;5.076;2023-04-22T12:18:07;100721.94;;;13.09;100.00
74163;BME280;62515;52.758;5.076;2023-04-22T12:20:35;100729.09;;;13.09;100.00
74163;BME280;62515;52.758;5.076;2023-04-22T12:23:03;100726.31;;;12.99;100.00
74163;BME280;62515;52.758;5.076;2023-04-22T12:25:31;100722.91;;;12.97;100.00
74163;BME280;62515;52.758;5.076;2023-04-22T12:28:00;100724.19;;;12.82;100.00
74163;BME280;62515;52.758;5.076;2023-04-22T12:30:28;100719.38;;;12.65;100.00
74163;BME280;62515;52.758;5.076;2023-04-22T12:33:01;100715.06;;;12.53;100.00
74163;BME280;62515;52.758;5.076;2023-04-22T12:35:28;100736.81;;;12.48;100.00
74163;BME280;62515;52.758;5.076;2023-04-22T12:37:55;100744.56;;;12.51;100.00
74163;BME280;62515;52.758;5.076;2023-04-22T12:40:22;100747.25;;;12.29;100.00
74163;BME280;62515;52.758;5.076;2023-04-22T12:42:49;100757.09;;;11.95;100.00
74163;BME280;62515;52.758;5.076;2023-04-22T12:45:16;100761.78;;;11.81;100.00
74163;BME280;62515;52.758;5.076;2023-04-22T12:47:42;100759.84;;;11.72;100.00
74163;BME280;62515;52.758;5.076;2023-04-22T12:50:11;100766.66;;;11.41;100.00
74163;BME280;62515;52.758;5.076;2023-04-22T12:52:38;100760.81;;;11.36;100.00
74163;BME280;62515;52.758;5.076;2023-04-22T12:55:05;100755.97;;;11.30;100.00